Time;durP1;ratioP1;P1;durP2;ratioP2;P2;SDS_P1;SDS_P2;PMS_P1;PMS_P2;Temp;Humidity;BMP_temperature;BMP_pressure;BME280_temperature;BME280_humidity;BME280_pressure;Samples;Min_cycle;Max_cycle;Signal;HPM_P1;HPM_P2
2023/07/07 00:00:39;;;;;;;2.30;1.13;;;13.80;99.90;;;;;;5035338;28;20174;-70
2023/07/07 00:03:05;;;;;;;1.47;1.47;;;13.70;99.90;;;;;;5035042;28;20170;-69
2023/07/07 00:05:31;;;;;;;2.97;0.90;;;13.70;99.90;;;;;;5035284;28;20178;-70
2023/07/07 00:07:59;;;;;;;1.13;0.93;;;13.60;99.90;;;;;;5035065;28;20494;-70
2023/07/07 00:10:25;;;;;;;5.83;1.93;;;13.50;99.90;;;;;;5035181;28;20244;-69
2023/07/07 00:12:51;;;;;;;1.67;1.57;;;13.50;99.90;;;;;;5034821;28;20882;-69
2023/07/07 00:15:17;;;;;;;0.97;0.87;;;13.50;99.90;;;;;;5035063;28;20688;-69
2023/07/07 00:17:43;;;;;;;1.00;1.00;;;13.50;99.90;;;;;;5034983;28;20240;-70
2023/07/07 00:20:11;;;;;;;2.20;1.03;;;13.60;99.90;;;;;;5034912;28;20415;-69
2023/07/07 00:22:37;;;;;;;0.60;0.60;;;13.70;99.90;;;;;;5034787;28;20476;-69
2023/07/07 00:25:04;;;;;;;1.10;1.00;;;13.70;99.90;;;;;;5034831;28;20409;-70
2023/07/07 00:27:30;;;;;;;0.70;0.57;;;13.70;99.90;;;;;;5034841;28;20506;-70
2023/07/07 00:29:56;;;;;;;0.53;0.53;;;13.70;99.90;;;;;;5034679;28;20425;-70
2023/07/07 00:32:22;;;;;;;0.60;0.60;;;13.60;99.90;;;;;;5034386;28;20209;-70
2023/07/07 00:34:48;;;;;;;2.70;1.70;;;13.60;99.90;;;;;;5034659;28;20179;-69
2023/07/07 00:37:14;;;;;;;1.43;1.33;;;13.70;99.90;;;;;;5034740;28;20798;-69
2023/07/07 00:39:39;;;;;;;2.00;1.90;;;13.60;99.90;;;;;;5034546;28;20175;-69
2023/07/07 00:42:05;;;;;;;1.53;1.43;;;13.70;99.90;;;;;;5034349;28;20909;-70
2023/07/07 00:45:20;;;;;;;1.30;1.20;;;13.60;99.90;;;;;;5034588;28;20185;-69
2023/07/07 00:48:00;;;;;;;0.90;0.90;;;13.50;99.90;;;;;;5021140;28;20518;-70
2023/07/07 00:50:30;;;;;;;0.60;0.60;;;13.50;99.90;;;;;;5034414;28;20480;-69
2023/07/07 00:52:56;;;;;;;1.07;1.07;;;13.50;99.90;;;;;;5034064;28;20419;-70
2023/07/07 00:55:35;;;;;;;2.07;1.43;;;13.60;99.90;;;;;;5034253;28;20412;-69
2023/07/07 00:58:05;;;;;;;0.80;0.80;;;13.60;99.90;;;;;;5034224;28;20269;-70
2023/07/07 01:00:36;;;;;;;1.23;1.13;;;13.50;99.90;;;;;;5034400;28;20406;-70
2023/07/07 01:03:13;;;;;;;1.90;1.27;;;13.40;99.90;;;;;;5034032;28;20892;-69
2023/07/07 01:05:40;;;;;;;1.30;1.20;;;13.40;99.90;;;;;;5034115;28;20459;-70
2023/07/07 01:08:07;;;;;;;3.10;2.80;;;13.30;99.90;;;;;;5033944;28;20844;-69
2023/07/07 01:10:33;;;;;;;3.80;3.50;;;13.30;99.90;;;;;;5033987;28;20449;-69
2023/07/07 01:12:59;;;;;;;1.30;1.23;;;13.40;99.90;;;;;;5033902;28;20417;-69
2023/07/07 01:15:30;;;;;;;1.53;1.43;;;13.40;99.90;;;;;;5034078;28;20775;-69
2023/07/07 01:18:15;;;;;;;1.00;0.90;;;13.40;99.90;;;;;;5033883;28;20463;-70
2023/07/07 01:20:45;;;;;;;1.10;0.80;;;13.40;99.90;;;;;;5033821;28;20409;-69
2023/07/07 01:23:43;;;;;;;0.97;0.93;;;13.40;99.90;;;;;;5033290;28;20416;-69
2023/07/07 01:26:43;;;;;;;3.10;1.70;;;13.50;99.90;;;;;;5002939;28;20468;-70
2023/07/07 01:29:27;;;;;;;2.47;1.90;;;13.40;99.90;;;;;;5033847;28;20413;-69
2023/07/07 01:32:11;;;;;;;0.83;0.83;;;13.30;99.90;;;;;;5033640;28;20458;-70
2023/07/07 01:34:37;;;;;;;5.00;1.37;;;13.20;99.90;;;;;;5033765;28;20408;-70
2023/07/07 01:37:03;;;;;;;2.07;1.60;;;13.30;99.90;;;;;;5033436;28;20508;-70
2023/07/07 01:39:28;;;;;;;3.37;0.93;;;13.30;99.90;;;;;;5033507;28;20189;-70
2023/07/07 01:42:07;;;;;;;2.93;1.33;;;13.30;99.90;;;;;;5033429;28;20424;-70
2023/07/07 01:44:52;;;;;;;0.97;0.97;;;13.40;99.90;;;;;;5033523;28;20440;-69
2023/07/07 01:47:33;;;;;;;2.20;2.07;;;13.40;99.90;;;;;;5033393;28;20507;-70
2023/07/07 01:50:07;;;;;;;2.30;1.60;;;13.40;99.90;;;;;;5032189;28;20925;-69
2023/07/07 01:53:00;;;;;;;3.90;1.20;;;13.30;99.90;;;;;;5033403;28;20405;-69
2023/07/07 01:55:30;;;;;;;2.03;1.50;;;13.30;99.90;;;;;;5033568;28;20409;-69
2023/07/07 01:57:58;;;;;;;1.40;1.30;;;13.20;99.90;;;;;;5033310;28;20794;-70
2023/07/07 02:00:26;;;;;;;1.57;1.47;;;13.20;99.90;;;;;;5033358;28;20454;-70
2023/07/07 02:02:53;;;;;;;1.07;1.00;;;13.20;99.90;;;;;;5033396;28;20439;-69
2023/07/07 02:05:18;;;;;;;2.83;2.33;;;13.10;99.90;;;;;;5033443;28;20409;-70
2023/07/07 02:07:44;;;;;;;1.50;1.10;;;13.20;99.90;;;;;;5033296;28;20444;-70
2023/07/07 02:10:10;;;;;;;1.90;1.70;;;13.20;99.90;;;;;;5033169;28;20174;-70
2023/07/07 02:12:36;;;;;;;2.90;2.53;;;13.30;99.90;;;;;;5033049;28;20402;-68
2023/07/07 02:15:02;;;;;;;2.57;2.47;;;13.40;99.90;;;;;;5033253;28;20408;-69
2023/07/07 02:17:29;;;;;;;1.33;1.23;;;13.40;99.90;;;;;;5033308;28;20183;-70
2023/07/07 02:19:55;;;;;;;3.17;1.70;;;13.40;99.90;;;;;;5033146;28;20416;-70
2023/07/07 02:22:21;;;;;;;1.33;0.97;;;13.50;99.90;;;;;;5031691;28;20743;-69
2023/07/07 02:24:47;;;;;;;1.70;1.60;;;13.40;99.90;;;;;;5033068;28;20398;-69
2023/07/07 02:27:12;;;;;;;1.37;1.27;;;13.40;99.90;;;;;;5033216;28;20303;-69
2023/07/07 02:29:38;;;;;;;2.10;1.20;;;13.30;99.90;;;;;;5033139;28;20220;-69
2023/07/07 02:32:05;;;;;;;1.27;1.20;;;13.30;99.90;;;;;;5032781;28;20559;-69
2023/07/07 02:34:31;;;;;;;0.97;0.97;;;13.30;99.90;;;;;;5033212;28;20401;-70
2023/07/07 02:36:58;;;;;;;1.70;1.60;;;13.30;99.90;;;;;;5036255;28;20990;-69
2023/07/07 02:39:24;;;;;;;1.63;1.53;;;13.30;99.90;;;;;;5037055;28;20987;-69
2023/07/07 02:41:50;;;;;;;1.03;0.87;;;13.40;99.90;;;;;;5036593;28;20488;-69
2023/07/07 02:44:17;;;;;;;2.60;2.20;;;13.40;99.90;;;;;;5036943;28;20408;-69
2023/07/07 02:46:44;;;;;;;1.73;1.50;;;13.20;99.90;;;;;;5036605;28;20487;-69
2023/07/07 02:49:10;;;;;;;1.37;1.03;;;13.30;99.90;;;;;;5036699;28;20408;-69
2023/07/07 02:51:35;;;;;;;1.80;1.20;;;13.30;99.90;;;;;;5036298;28;20463;-69
2023/07/07 02:54:01;;;;;;;1.03;0.90;;;13.30;99.90;;;;;;5036598;28;20429;-70
2023/07/07 02:56:27;;;;;;;1.07;0.77;;;;;;;;;;5036457;28;20163;-69
2023/07/07 02:58:53;;;;;;;1.63;1.53;;;13.30;99.90;;;;;;5036455;28;20175;-70
2023/07/07 03:01:19;;;;;;;0.70;0.70;;;13.30;99.90;;;;;;5035078;28;20418;-69
2023/07/07 03:03:48;;;;;;;1.83;1.10;;;13.20;99.90;;;;;;5036527;28;20186;-70
2023/07/07 03:06:18;;;;;;;2.97;1.07;;;13.20;99.90;;;;;;5036361;28;20416;-69
2023/07/07 03:08:44;;;;;;;0.93;0.90;;;13.10;99.90;;;;;;5036202;28;20793;-69
2023/07/07 03:11:12;;;;;;;1.07;1.00;;;13.00;99.90;;;;;;5035326;28;20535;-70
2023/07/07 03:13:39;;;;;;;0.93;0.80;;;13.00;99.90;;;;;;5036289;28;20397;-70
2023/07/07 03:16:22;;;;;;;2.03;1.10;;;12.90;99.90;;;;;;5035834;28;20467;-70
2023/07/07 03:18:52;;;;;;;3.90;1.57;;;13.00;99.90;;;;;;5036087;28;20431;-70
2023/07/07 03:21:19;;;;;;;1.00;0.77;;;13.10;99.90;;;;;;5036066;28;20408;-69
2023/07/07 03:23:45;;;;;;;2.13;2.00;;;13.10;99.90;;;;;;5036175;28;20457;-70
2023/07/07 03:26:13;;;;;;;0.87;0.87;;;13.20;99.90;;;;;;5035848;28;20936;-69
2023/07/07 03:28:40;;;;;;;3.10;1.17;;;13.20;99.90;;;;;;5035821;28;20444;-69
2023/07/07 03:31:15;;;;;;;3.17;2.10;;;13.10;99.90;;;;;;5035837;28;20503;-69
2023/07/07 03:33:43;;;;;;;1.17;0.93;;;13.10;99.90;;;;;;5035874;28;20409;-69
2023/07/07 03:36:11;;;;;;;1.10;1.00;;;13.00;99.90;;;;;;5036079;28;20426;-70
2023/07/07 03:38:37;;;;;;;1.37;0.83;;;13.10;99.90;;;;;;5035911;28;20808;-68
2023/07/07 03:41:04;;;;;;;1.67;1.57;;;13.10;99.90;;;;;;5035545;28;20401;-70
2023/07/07 03:43:33;;;;;;;1.57;1.40;;;13.00;99.90;;;;;;5035702;28;20913;-70
2023/07/07 03:46:02;;;;;;;2.70;2.50;;;13.00;99.90;;;;;;5035226;28;20430;-69
2023/07/07 03:48:28;;;;;;;2.20;1.73;;;13.10;99.90;;;;;;5035470;28;20932;-70
2023/07/07 03:51:02;;;;;;;1.57;0.90;;;13.00;99.90;;;;;;5035350;28;20463;-70
2023/07/07 03:53:29;;;;;;;1.57;1.47;;;13.10;99.90;;;;;;5035393;28;20893;-70
2023/07/07 03:55:55;;;;;;;0.73;0.73;;;13.10;99.90;;;;;;5035522;28;20405;-69
2023/07/07 03:58:21;;;;;;;1.00;1.00;;;13.20;99.90;;;;;;5035330;28;20875;-70
2023/07/07 04:00:48;;;;;;;3.07;2.87;;;13.20;99.90;;;;;;5035548;28;20417;-70
2023/07/07 04:03:15;;;;;;;1.80;1.70;;;13.20;99.90;;;;;;5035164;28;20409;-69
2023/07/07 04:05:44;;;;;;;1.10;1.07;;;13.30;99.90;;;;;;5035415;28;20963;-71
2023/07/07 04:08:10;;;;;;;3.00;1.13;;;13.30;99.90;;;;;;5034476;28;20535;-69
2023/07/07 04:10:38;;;;;;;0.83;0.80;;;13.30;99.90;;;;;;5034159;28;20510;-70
2023/07/07 04:13:04;;;;;;;2.00;1.00;;;13.30;99.90;;;;;;5034317;28;20408;-70
2023/07/07 04:15:31;;;;;;;2.70;1.33;;;13.30;99.90;;;;;;5034563;28;20467;-70
2023/07/07 04:17:56;;;;;;;5.27;1.87;;;13.30;99.90;;;;;;5034521;28;20485;-69
2023/07/07 04:20:22;;;;;;;1.97;1.87;;;13.30;99.90;;;;;;5034507;28;20504;-69
2023/07/07 04:22:48;;;;;;;0.80;0.50;;;13.30;99.90;;;;;;5034416;28;20167;-69
2023/07/07 04:25:15;;;;;;;1.83;1.00;;;13.40;99.90;;;;;;5035226;28;20756;-69
2023/07/07 04:27:42;;;;;;;2.13;1.00;;;13.40;99.90;;;;;;5034784;28;20252;-69
2023/07/07 04:30:08;;;;;;;2.27;1.43;;;13.40;99.90;;;;;;5033488;28;20957;-69
2023/07/07 04:32:34;;;;;;;2.20;2.00;;;13.50;99.90;;;;;;5034337;28;20963;-69
2023/07/07 04:34:59;;;;;;;1.93;1.77;;;13.80;99.90;;;;;;5034572;28;20416;-70
2023/07/07 04:37:25;;;;;;;2.33;1.40;;;14.00;99.90;;;;;;5034524;28;20191;-70
2023/07/07 04:39:52;;;;;;;0.83;0.80;;;14.20;99.90;;;;;;5034512;28;20167;-70
2023/07/07 04:42:17;;;;;;;0.80;0.80;;;14.60;99.90;;;;;;5034500;28;20503;-70
2023/07/07 04:44:43;;;;;;;0.97;0.93;;;15.30;99.90;;;;;;5034671;28;20496;-70
2023/07/07 04:47:09;;;;;;;0.80;0.80;;;16.10;99.90;;;;;;5034259;28;20206;-70
2023/07/07 04:49:34;;;;;;;1.37;1.33;;;16.90;99.90;;;;;;5034111;28;20171;-70
2023/07/07 04:52:00;;;;;;;1.40;0.77;;;17.30;99.60;;;;;;5033962;28;20945;-70
2023/07/07 04:54:26;;;;;;;2.70;1.90;;;17.30;98.90;;;;;;5034537;28;20166;-69
2023/07/07 04:56:53;;;;;;;0.70;0.70;;;17.20;98.60;;;;;;5034224;28;20286;-69
2023/07/07 04:59:19;;;;;;;7.83;2.77;;;17.20;98.40;;;;;;5034149;28;20631;-69
2023/07/07 05:01:45;;;;;;;0.70;0.70;;;17.20;97.90;;;;;;5034311;28;20405;-69
2023/07/07 05:04:11;;;;;;;1.23;1.23;;;17.10;97.70;;;;;;5034836;28;20409;-69
2023/07/07 05:06:38;;;;;;;1.63;1.53;;;17.20;99.90;;;;;;5034110;28;20467;-70
2023/07/07 05:09:06;;;;;;;2.23;1.33;;;17.30;97.70;;;;;;5034395;28;20415;-69
2023/07/07 05:11:33;;;;;;;1.83;0.93;;;17.50;97.60;;;;;;5033806;28;20544;-70
2023/07/07 05:13:59;;;;;;;1.70;1.50;;;17.60;96.50;;;;;;5034143;28;20925;-71
2023/07/07 05:16:45;;;;;;;1.47;1.37;;;17.70;96.80;;;;;;5034155;28;20486;-71
2023/07/07 05:19:11;;;;;;;1.73;1.63;;;17.90;96.60;;;;;;5033768;28;20470;-70
2023/07/07 05:21:36;;;;;;;1.13;1.03;;;18.10;96.00;;;;;;5033754;28;20405;-70
2023/07/07 05:24:02;;;;;;;3.70;2.13;;;18.30;95.90;;;;;;5034368;28;20194;-70
2023/07/07 05:26:28;;;;;;;0.77;0.73;;;18.10;95.50;;;;;;5034252;28;20224;-70
2023/07/07 05:28:58;;;;;;;3.10;1.83;;;18.60;95.60;;;;;;5034086;28;20642;-70
2023/07/07 05:31:24;;;;;;;2.37;1.33;;;18.80;96.20;;;;;;5034027;28;20186;-70
2023/07/07 05:33:50;;;;;;;1.60;1.23;;;18.90;95.90;;;;;;5033873;28;20492;-71
2023/07/07 05:36:16;;;;;;;1.03;1.03;;;18.90;95.60;;;;;;5033970;28;20530;-71
2023/07/07 05:38:41;;;;;;;0.60;0.60;;;18.90;95.50;;;;;;5033977;28;20436;-69
2023/07/07 05:41:08;;;;;;;1.13;1.07;;;18.80;95.40;;;;;;5033577;28;20175;-70
2023/07/07 05:43:35;;;;;;;1.43;1.33;;;18.90;95.80;;;;;;5034337;28;20456;-71
2023/07/07 05:46:03;;;;;;;0.60;0.60;;;19.00;96.00;;;;;;5033501;28;20467;-70
2023/07/07 05:48:30;;;;;;;1.10;1.10;;;19.10;95.40;;;;;;5033558;28;20469;-70
2023/07/07 05:50:58;;;;;;;0.63;0.63;;;19.30;95.60;;;;;;5033482;28;20445;-71
2023/07/07 05:53:24;;;;;;;1.43;1.30;;;19.50;95.70;;;;;;5033518;28;20466;-71
2023/07/07 05:55:50;;;;;;;1.80;1.33;;;19.70;95.00;;;;;;5033495;28;20501;-71
2023/07/07 05:58:16;;;;;;;0.50;0.50;;;19.90;95.00;;;;;;5033389;28;20516;-70
2023/07/07 06:00:42;;;;;;;1.50;1.27;;;20.00;94.70;;;;;;5033462;28;20495;-71
2023/07/07 06:03:08;;;;;;;1.37;0.90;;;20.10;94.80;;;;;;5032935;28;20463;-71
2023/07/07 06:05:33;;;;;;;2.00;1.53;;;20.40;95.10;;;;;;5033600;28;20174;-71
2023/07/07 06:08:00;;;;;;;1.90;1.80;;;20.40;94.10;;;;;;5033165;28;20196;-70
2023/07/07 06:10:27;;;;;;;3.33;1.60;;;20.60;95.00;;;;;;5035735;28;20252;-71
2023/07/07 06:12:52;;;;;;;1.10;0.70;;;20.70;95.00;;;;;;5037143;28;20477;-70
2023/07/07 06:15:18;;;;;;;1.00;0.90;;;21.10;94.20;;;;;;5037307;28;20408;-71
2023/07/07 06:17:44;;;;;;;2.77;1.00;;;21.40;92.70;;;;;;5035698;28;20226;-71
2023/07/07 06:20:11;;;;;;;0.93;0.93;;;21.70;92.90;;;;;;5035413;28;20177;-71
2023/07/07 06:22:37;;;;;;;0.93;0.60;;;22.60;93.00;;;;;;5037205;28;20484;-71
2023/07/07 06:25:03;;;;;;;1.13;0.73;;;23.90;91.60;;;;;;5036514;28;20439;-71
2023/07/07 06:27:31;;;;;;;1.10;0.97;;;25.70;89.30;;;;;;5036068;28;20187;-71
2023/07/07 06:29:57;;;;;;;1.10;0.90;;;27.70;77.30;;;;;;5035603;28;20435;-71
2023/07/07 06:32:22;;;;;;;1.63;0.90;;;29.60;72.60;;;;;;5036693;28;20444;-72
2023/07/07 06:34:48;;;;;;;1.17;0.93;;;31.40;65.10;;;;;;5035745;28;20253;-72
2023/07/07 06:37:14;;;;;;;0.80;0.80;;;32.90;58.70;;;;;;5036831;28;20234;-70
2023/07/07 06:39:39;;;;;;;3.70;0.90;;;34.20;55.20;;;;;;5036835;28;20179;-70
2023/07/07 06:42:05;;;;;;;1.57;1.10;;;35.30;51.60;;;;;;5036392;28;20167;-69
2023/07/07 06:44:32;;;;;;;1.90;0.93;;;36.30;48.80;;;;;;5037002;28;20174;-70
2023/07/07 06:46:58;;;;;;;2.97;1.37;;;37.00;46.70;;;;;;5036451;28;20897;-69
2023/07/07 06:49:24;;;;;;;1.33;1.07;;;37.00;40.80;;;;;;5036539;28;20406;-70
2023/07/07 06:51:50;;;;;;;2.73;0.80;;;36.90;42.10;;;;;;5036473;28;20535;-71
2023/07/07 06:54:15;;;;;;;0.90;0.90;;;36.80;43.00;;;;;;5036698;28;20173;-70
2023/07/07 06:56:41;;;;;;;1.23;0.80;;;36.20;50.10;;;;;;5036470;28;20198;-70
2023/07/07 06:59:11;;;;;;;1.57;0.77;;;36.10;41.70;;;;;;5036839;28;20168;-70
2023/07/07 07:01:37;;;;;;;1.17;0.80;;;35.90;41.20;;;;;;5036422;28;20224;-70
2023/07/07 07:04:03;;;;;;;1.93;1.60;;;35.40;39.50;;;;;;5036449;28;20406;-71
2023/07/07 07:06:29;;;;;;;1.60;1.10;;;34.80;47.20;;;;;;5036366;28;20169;-70
2023/07/07 07:08:54;;;;;;;1.67;1.27;;;34.80;39.30;;;;;;5036292;28;20406;-71
2023/07/07 07:11:20;;;;;;;1.30;1.20;;;34.50;40.80;;;;;;5035867;28;20206;-70
2023/07/07 07:13:47;;;;;;;0.73;0.73;;;33.40;40.60;;;;;;5036370;28;20177;-70
2023/07/07 07:16:12;;;;;;;0.60;0.60;;;32.40;41.50;;;;;;5036175;28;20240;-70
2023/07/07 07:18:38;;;;;;;2.20;1.03;;;30.90;42.90;;;;;;5036007;28;20422;-69
2023/07/07 07:21:04;;;;;;;0.70;0.70;;;28.60;45.00;;;;;;5035321;28;20254;-69
2023/07/07 07:23:29;;;;;;;1.23;1.07;;;27.40;46.60;;;;;;5036186;28;20171;-69
2023/07/07 07:25:55;;;;;;;2.30;1.43;;;27.20;47.90;;;;;;5035959;28;20181;-69
2023/07/07 07:28:21;;;;;;;0.87;0.87;;;26.70;48.60;;;;;;5035894;28;20195;-69
2023/07/07 07:30:48;;;;;;;1.47;1.13;;;26.20;48.80;;;;;;5035866;28;20197;-70
2023/07/07 07:33:19;;;;;;;1.10;1.00;;;26.00;50.20;;;;;;5035783;28;20923;-70
2023/07/07 07:35:46;;;;;;;1.80;1.07;;;26.30;51.10;;;;;;5035979;28;20761;-70
2023/07/07 07:38:11;;;;;;;0.87;0.50;;;26.50;49.10;;;;;;5035703;28;20437;-69
2023/07/07 07:40:37;;;;;;;0.60;0.60;;;26.60;48.80;;;;;;5035957;28;20413;-69
2023/07/07 07:43:03;;;;;;;0.80;0.50;;;27.30;49.90;;;;;;5035485;28;20249;-70
2023/07/07 07:45:28;;;;;;;2.43;1.13;;;27.90;48.20;;;;;;5035846;28;20171;-70
2023/07/07 07:47:54;;;;;;;1.20;0.90;;;28.20;47.30;;;;;;5035599;28;20194;-70
2023/07/07 07:50:21;;;;;;;3.23;0.83;;;29.10;47.70;;;;;;5035498;28;20206;-70
2023/07/07 07:52:47;;;;;;;1.73;1.00;;;30.30;46.10;;;;;;5035296;28;20159;-70
2023/07/07 07:55:16;;;;;;;1.27;0.90;;;31.10;42.50;;;;;;5035667;28;20467;-70
2023/07/07 07:57:43;;;;;;;1.07;0.60;;;31.20;42.90;;;;;;5035304;28;20277;-69
2023/07/07 08:00:09;;;;;;;0.80;0.70;;;31.70;40.20;;;;;;5035323;28;20404;-70
2023/07/07 08:02:37;;;;;;;1.53;0.93;;;32.80;40.60;;;;;;5035131;28;20448;-70
2023/07/07 08:05:03;;;;;;;0.80;0.80;;;32.50;39.20;;;;;;5035272;28;20417;-70
2023/07/07 08:07:30;;;;;;;1.70;1.37;;;32.70;39.50;;;;;;5035181;28;20475;-70
2023/07/07 08:09:56;;;;;;;0.97;0.60;;;32.60;42.00;;;;;;5035175;28;20471;-71
2023/07/07 08:12:22;;;;;;;1.00;0.90;;;33.50;39.50;;;;;;5034882;28;20449;-71
2023/07/07 08:14:47;;;;;;;1.70;1.33;;;34.90;37.90;;;;;;5035086;28;20413;-70
2023/07/07 08:17:14;;;;;;;0.90;0.80;;;36.30;36.30;;;;;;5035100;28;20194;-70
2023/07/07 08:19:41;;;;;;;0.80;0.73;;;37.00;35.20;;;;;;5035072;28;20171;-69
2023/07/07 08:22:15;;;;;;;2.70;1.07;;;37.10;34.60;;;;;;5034743;28;20467;-70
2023/07/07 08:24:47;;;;;;;1.03;0.93;;;37.30;32.70;;;;;;5035042;28;20408;-69
2023/07/07 08:27:13;;;;;;;1.37;1.00;;;36.30;34.00;;;;;;5034948;28;20783;-70
2023/07/07 08:29:42;;;;;;;0.80;0.80;;;35.30;36.20;;;;;;5032183;28;20790;-67
2023/07/07 08:32:12;;;;;;;0.90;0.70;;;35.00;36.10;;;;;;5033018;28;20973;-67
2023/07/07 08:34:39;;;;;;;1.77;0.70;;;35.20;36.10;;;;;;5033306;28;20492;-70
2023/07/07 08:37:05;;;;;;;1.00;0.90;;;34.90;35.70;;;;;;5033634;28;20461;-67
2023/07/07 08:39:31;;;;;;;1.27;1.17;;;34.00;37.30;;;;;;5034861;28;20432;-69
2023/07/07 08:42:16;;;;;;;0.67;0.63;;;34.60;37.10;;;;;;5033761;28;20778;-71
2023/07/07 08:44:42;;;;;;;2.07;1.13;;;35.50;37.10;;;;;;5034625;28;20710;-70
2023/07/07 08:47:36;;;;;;;0.87;0.73;;;36.50;34.10;;;;;;5033922;28;20485;-70
2023/07/07 08:50:06;;;;;;;1.00;0.90;;;37.30;33.10;;;;;;5034488;28;20175;-70
2023/07/07 08:53:01;;;;;;;1.40;1.30;;;36.40;32.80;;;;;;5034135;28;20465;-69
2023/07/07 08:56:04;;;;;;;1.13;0.77;;;35.30;33.20;;;;;;5033885;28;20398;-73
2023/07/07 08:58:35;;;;;;;0.80;0.73;;;35.20;36.30;;;;;;5033951;28;20421;-70
2023/07/07 09:01:25;;;;;;;0.80;0.73;;;36.60;36.20;;;;;;5032950;28;20401;-70
2023/07/07 09:04:03;;;;;;;2.10;0.97;;;37.50;31.90;;;;;;5034785;28;20398;-70
2023/07/07 09:06:40;;;;;;;1.07;0.60;;;37.70;31.50;;;;;;5033836;28;20397;-69
2023/07/07 09:09:17;;;;;;;0.77;0.77;;;37.70;32.90;;;;;;5034157;28;20414;-71
2023/07/07 09:12:31;;;;;;;1.43;0.73;;;37.80;33.00;;;;;;5033545;28;20944;-71
2023/07/07 09:15:00;;;;;;;1.70;1.10;;;37.20;32.10;;;;;;5020867;28;20463;-69
2023/07/07 09:17:32;;;;;;;1.33;1.00;;;35.70;33.80;;;;;;5033773;28;20429;-71
2023/07/07 09:20:02;;;;;;;1.00;0.87;;;35.20;35.10;;;;;;5033884;28;20405;-71
2023/07/07 09:22:49;;;;;;;0.90;0.90;;;35.60;33.90;;;;;;5033623;28;20833;-71
2023/07/07 09:25:24;;;;;;;1.27;0.90;;;36.00;34.20;;;;;;5034070;28;20405;-70
2023/07/07 09:28:11;;;;;;;1.30;1.20;;;36.30;33.70;;;;;;5033810;28;20416;-71
2023/07/07 09:30:43;;;;;;;1.20;1.10;;;36.50;33.20;;;;;;5032307;28;20933;-71
2023/07/07 09:33:16;;;;;;;0.97;0.90;;;36.30;33.70;;;;;;5033069;28;20412;-71
2023/07/07 09:35:50;;;;;;;1.90;0.90;;;36.50;33.00;;;;;;5033831;28;20397;-70
2023/07/07 09:38:44;;;;;;;2.60;1.50;;;36.80;34.30;;;;;;5033548;28;20425;-69
2023/07/07 09:41:34;;;;;;;1.60;0.87;;;37.40;32.70;;;;;;5033244;28;20409;-72
2023/07/07 09:44:18;;;;;;;0.73;0.73;;;37.30;33.70;;;;;;5032908;28;20402;-70
2023/07/07 09:46:48;;;;;;;1.10;0.83;;;36.40;42.10;;;;;;5031476;28;20425;-70
2023/07/07 09:49:23;;;;;;;3.30;1.20;;;36.70;32.10;;;;;;5032948;28;20471;-70
2023/07/07 09:52:03;;;;;;;1.00;0.90;;;36.30;32.80;;;;;;5031685;28;20874;-70
2023/07/07 09:54:30;;;;;;;1.00;0.80;;;36.00;32.70;;;;;;5033290;28;20404;-71
2023/07/07 09:57:08;;;;;;;1.57;1.00;;;34.90;34.60;;;;;;5033274;28;20422;-71
2023/07/07 09:59:43;;;;;;;0.70;0.70;;;34.60;33.50;;;;;;5033460;28;20393;-70
2023/07/07 10:02:21;;;;;;;0.70;0.70;;;34.20;34.30;;;;;;5033198;28;20409;-71
2023/07/07 10:05:08;;;;;;;1.30;1.17;;;34.30;34.40;;;;;;5033386;28;20496;-70
2023/07/07 10:07:40;;;;;;;1.40;0.90;;;34.90;33.80;;;;;;5033018;28;20429;-70
2023/07/07 10:10:10;;;;;;;1.47;1.00;;;35.10;33.50;;;;;;5033623;28;20394;-71
2023/07/07 10:12:37;;;;;;;1.70;0.80;;;34.90;32.90;;;;;;5032866;28;20563;-70
2023/07/07 10:15:30;;;;;;;1.27;0.93;;;34.90;33.00;;;;;;5033204;28;20465;-70
2023/07/07 10:18:10;;;;;;;1.10;1.10;;;34.90;34.60;;;;;;5009924;28;20512;-71
2023/07/07 10:20:36;;;;;;;0.93;0.90;;;34.80;33.70;;;;;;5033150;28;20872;-71
2023/07/07 10:23:01;;;;;;;2.03;1.50;;;34.90;35.40;;;;;;5032916;28;20409;-70
2023/07/07 10:25:30;;;;;;;1.47;1.17;;;35.10;35.20;;;;;;5033110;28;20217;-70
2023/07/07 10:27:56;;;;;;;1.30;0.93;;;35.40;34.30;;;;;;5033224;28;20621;-71
2023/07/07 10:30:22;;;;;;;1.47;0.90;;;35.10;32.60;;;;;;5033139;28;20501;-71
2023/07/07 10:32:47;;;;;;;1.50;1.00;;;34.90;33.30;;;;;;5032984;28;20588;-70
2023/07/07 10:35:19;;;;;;;2.33;1.73;;;34.70;33.90;;;;;;5032983;28;20571;-70
2023/07/07 10:37:46;;;;;;;3.23;1.40;;;34.50;34.40;;;;;;5033158;28;20265;-71
2023/07/07 10:40:21;;;;;;;1.60;0.80;;;34.70;38.00;;;;;;5033211;28;20812;-70
2023/07/07 10:42:52;;;;;;;3.03;1.27;;;34.50;34.30;;;;;;5032823;28;20462;-69
2023/07/07 10:45:18;;;;;;;1.80;1.30;;;34.40;37.90;;;;;;5033150;28;20967;-71
2023/07/07 10:47:43;;;;;;;2.30;1.00;;;34.00;40.00;;;;;;5032709;28;20453;-70
2023/07/07 10:50:14;;;;;;;1.13;1.03;;;33.80;37.20;;;;;;5033081;28;20214;-71
2023/07/07 10:53:02;;;;;;;0.97;0.80;;;33.70;37.90;;;;;;5032812;28;20240;-70
2023/07/07 10:55:37;;;;;;;1.00;0.83;;;33.70;37.50;;;;;;5032965;28;20406;-69
2023/07/07 10:58:21;;;;;;;1.10;0.90;;;33.00;36.60;;;;;;5035993;28;20438;-70
2023/07/07 11:00:55;;;;;;;1.23;1.13;;;31.80;38.70;;;;;;5036584;28;20947;-69
2023/07/07 11:03:42;;;;;;;1.10;0.70;;;31.20;43.20;;;;;;5036348;28;20401;-70
2023/07/07 11:06:07;;;;;;;0.80;0.60;;;31.20;43.30;;;;;;5036542;28;20409;-69
2023/07/07 11:09:21;;;;;;;1.03;0.67;;;30.60;41.80;;;;;;5036224;28;20475;-70
2023/07/07 11:12:05;;;;;;;1.23;0.80;;;30.40;42.80;;;;;;4982265;28;20251;-70
2023/07/07 11:14:52;;;;;;;0.80;0.80;;;30.30;43.70;;;;;;5036351;28;20881;-70
2023/07/07 11:17:36;;;;;;;0.93;0.70;;;30.40;42.90;;;;;;5036218;28;20438;-70
2023/07/07 11:20:16;;;;;;;0.80;0.80;;;30.50;41.60;;;;;;5036444;28;20405;-71
2023/07/07 11:23:06;;;;;;;1.93;1.20;;;30.40;42.60;;;;;;5036023;28;20420;-70
2023/07/07 11:25:37;;;;;;;1.80;1.20;;;30.50;40.50;;;;;;5036191;28;20898;-72
2023/07/07 11:28:29;;;;;;;1.23;0.90;;;30.30;39.50;;;;;;5036049;28;20897;-71
2023/07/07 11:31:18;;;;;;;2.90;1.27;;;30.10;41.80;;;;;;5035859;28;20995;-72
2023/07/07 11:34:28;;;;;;;0.70;0.60;;;29.90;41.10;;;;;;5036040;28;20765;-71
2023/07/07 11:37:14;;;;;;;0.90;0.80;;;30.00;40.70;;;;;;5035951;28;20791;-73
2023/07/07 11:39:58;;;;;;;2.37;0.90;;;29.70;42.90;;;;;;5035802;28;20382;-72
2023/07/07 11:42:45;;;;;;;1.37;1.27;;;29.60;41.50;;;;;;5035714;28;20913;-71
2023/07/07 11:45:34;;;;;;;2.00;0.80;;;29.60;41.50;;;;;;5035935;28;20405;-72
2023/07/07 11:48:12;;;;;;;1.03;0.90;;;29.40;41.90;;;;;;5035200;28;20453;-72
2023/07/07 11:51:11;;;;;;;1.80;1.43;;;28.80;42.10;;;;;;5035399;28;20429;-71
2023/07/07 11:54:04;;;;;;;0.60;0.60;;;28.80;45.20;;;;;;5035671;28;20393;-71
2023/07/07 11:56:50;;;;;;;1.23;0.83;;;29.00;42.10;;;;;;5035500;28;20398;-72
2023/07/07 11:59:21;;;;;;;3.90;1.23;;;29.20;40.70;;;;;;5035534;28;20386;-72
2023/07/07 12:01:53;;;;;;;0.80;0.80;;;29.20;42.50;;;;;;5035171;28;20497;-72
2023/07/07 12:04:56;;;;;;;0.97;0.90;;;29.20;41.90;;;;;;5035387;28;20418;-71
2023/07/07 12:07:35;;;;;;;1.40;0.90;;;29.30;41.70;;;;;;5031896;28;20606;-72
2023/07/07 12:10:18;;;;;;;2.03;1.83;;;29.50;45.30;;;;;;5035132;28;20417;-71
2023/07/07 12:12:59;;;;;;;0.70;0.70;;;29.20;39.70;;;;;;5034880;28;20826;-71
2023/07/07 12:15:38;;;;;;;1.13;0.83;;;29.00;38.70;;;;;;5035271;28;20401;-71
2023/07/07 12:18:16;;;;;;;1.00;0.90;;;29.00;40.00;;;;;;5034955;28;20516;-72
2023/07/07 12:21:14;;;;;;;2.30;1.10;;;28.80;40.40;;;;;;5035036;28;20452;-71
2023/07/07 12:24:11;;;;;;;0.80;0.80;;;28.80;42.50;;;;;;5034320;28;20952;-72
2023/07/07 12:26:44;;;;;;;1.00;1.00;;;28.50;50.10;;;;;;5021383;28;20414;-71
2023/07/07 12:29:12;;;;;;;0.90;0.80;;;28.70;44.40;;;;;;5034850;28;20448;-72
2023/07/07 12:31:37;;;;;;;0.60;0.50;;;28.90;41.80;;;;;;5034549;28;20445;-72
2023/07/07 12:34:36;;;;;;;2.03;0.70;;;28.80;41.60;;;;;;5035303;28;20783;-71
2023/07/07 12:37:12;;;;;;;0.77;0.67;;;28.60;42.30;;;;;;5024292;28;20260;-71
2023/07/07 12:39:59;;;;;;;2.50;1.03;;;28.60;46.10;;;;;;5034749;28;20386;-72
2023/07/07 12:42:28;;;;;;;2.13;1.30;;;28.80;41.70;;;;;;5033334;28;20421;-71
2023/07/07 12:45:15;;;;;;;3.47;0.80;;;28.90;41.90;;;;;;5035044;28;20437;-72
2023/07/07 12:47:42;;;;;;;4.40;0.97;;;29.00;41.50;;;;;;5033730;28;20871;-72
2023/07/07 12:50:25;;;;;;;0.73;0.73;;;28.80;41.90;;;;;;5034571;28;20414;-73
2023/07/07 12:52:52;;;;;;;0.77;0.77;;;28.80;41.90;;;;;;5034215;28;20461;-72
2023/07/07 12:55:28;;;;;;;1.60;1.03;;;28.70;43.10;;;;;;5034684;28;20939;-71
2023/07/07 12:58:05;;;;;;;1.97;0.80;;;28.70;44.10;;;;;;5033097;28;20425;-72
2023/07/07 13:00:39;;;;;;;1.03;1.03;;;28.90;45.10;;;;;;5033255;28;20779;-71
2023/07/07 13:03:10;;;;;;;2.10;1.23;;;29.00;41.80;;;;;;5034095;28;20802;-71
2023/07/07 13:05:49;;;;;;;1.30;1.20;;;28.90;42.90;;;;;;5033801;28;20870;-72
2023/07/07 13:08:37;;;;;;;1.00;0.90;;;28.80;41.20;;;;;;5033737;28;20549;-72
2023/07/07 13:11:08;;;;;;;1.50;0.70;;;28.60;41.40;;;;;;5033412;28;20457;-72